Time,TemperatureF,DewpointF,PressureIn,WindDirection,WindDirectionDegrees,WindSpeedMPH,WindSpeedGustMPH,Humidity,HourlyPrecipIn,Conditions,Clouds,dailyrainin,SoftwareType,DateUTC
2013-09-16 00:01:00,67.6,57.5,29.99,NNW,337,0.0,-999.0,70,-99.99,,,0.00,Acu-Link.com,2013-09-16 04:01:00,
2013-09-16 00:16:00,67.3,57.2,29.99,SW,225,1.1,-999.0,70,-99.99,,,0.00,Acu-Link.com,2013-09-16 04:16:00,
2013-09-16 00:31:00,66.2,58.0,30.00,ENE,67,0.0,-999.0,75,-99.99,,,0.00,Acu-Link.com,2013-09-16 04:31:00,
2013-09-16 00:46:00,64.9,57.5,30.01,NW,315,1.7,-999.0,77,-99.99,,,0.00,Acu-Link.com,2013-09-16 04:46:00,
2013-09-16 01:01:00,63.9,57.3,30.01,West,270,0.0,-999.0,79,-99.99,,,0.00,Acu-Link.com,2013-09-16 05:01:00,
2013-09-16 01:16:00,63.3,57.4,30.02,SE,135,0.0,-999.0,81,-99.99,,,0.00,Acu-Link.com,2013-09-16 05:16:00,
2013-09-16 01:32:00,62.8,56.9,30.03,SE,135,1.1,-999.0,81,-99.99,,,0.00,Acu-Link.com,2013-09-16 05:32:00,
2013-09-16 01:47:00,62.1,56.5,30.02,NW,315,1.7,-999.0,82,-99.99,,,0.00,Acu-Link.com,2013-09-16 05:47:00,
2013-09-16 02:02:00,61.9,56.3,30.03,SSW,202,0.0,-999.0,82,-99.99,,,0.00,Acu-Link.com,2013-09-16 06:02:00,
2013-09-16 02:17:00,61.7,56.1,30.03,North,0,1.7,-999.0,82,-99.99,,,0.00,Acu-Link.com,2013-09-16 06:17:00,
2013-09-16 02:33:00,61.7,56.5,30.04,South,180,0.0,-999.0,83,-99.99,,,0.00,Acu-Link.com,2013-09-16 06:33:00,
2013-09-16 02:48:00,61.5,56.3,30.04,North,0,0.0,-999.0,83,-99.99,,,0.00,Acu-Link.com,2013-09-16 06:48:00,
2013-09-16 03:03:00,61.3,56.1,30.04,NE,45,0.0,-999.0,83,-99.99,,,0.00,Acu-Link.com,2013-09-16 07:03:00,
2013-09-16 03:19:00,61.2,56.0,30.04,NE,45,1.1,-999.0,83,-99.99,,,0.00,Acu-Link.com,2013-09-16 07:19:00,
2013-09-16 03:34:00,61.2,56.0,30.05,WNW,292,0.0,-999.0,83,-99.99,,,0.00,Acu-Link.com,2013-09-16 07:34:00,
2013-09-16 03:49:00,61.0,56.1,30.04,SSE,157,0.0,-999.0,84,-99.99,,,0.00,Acu-Link.com,2013-09-16 07:49:00,
2013-09-16 04:05:00,61.0,56.1,30.04,NNW,337,1.1,-999.0,84,-99.99,,,0.00,Acu-Link.com,2013-09-16 08:05:00,
2013-09-16 04:20:00,61.0,56.1,30.04,ESE,112,0.0,-999.0,84,-99.99,,,0.00,Acu-Link.com,2013-09-16 08:20:00,
2013-09-16 04:36:00,60.8,55.9,30.04,ENE,67,0.0,-999.0,84,-99.99,,,0.00,Acu-Link.com,2013-09-16 08:36:00,
2013-09-16 04:51:00,60.8,55.9,30.05,NNW,337,1.7,-999.0,84,-99.99,,,0.00,Acu-Link.com,2013-09-16 08:51:00,
2013-09-16 05:06:00,60.8,56.3,30.05,West,270,0.0,-999.0,85,-99.99,,,0.00,Acu-Link.com,2013-09-16 09:06:00,
2013-09-16 05:21:00,60.6,56.4,30.05,SSE,157,0.0,-999.0,86,-99.99,,,0.00,Acu-Link.com,2013-09-16 09:21:00,
2013-09-16 05:36:00,60.4,56.2,30.05,SW,225,0.0,-999.0,86,-99.99,,,0.00,Acu-Link.com,2013-09-16 09:36:00,
2013-09-16 05:52:00,60.1,56.5,30.07,North,0,0.0,-999.0,88,-99.99,,,0.00,Acu-Link.com,2013-09-16 09:52:00,
2013-09-16 06:16:00,60.1,56.5,30.08,East,90,0.0,-999.0,88,-99.99,,,0.00,Acu-Link.com,2013-09-16 10:16:00,
2013-09-16 06:31:00,60.1,56.5,30.09,West,270,0.0,-999.0,88,-99.99,,,0.00,Acu-Link.com,2013-09-16 10:31:00,
2013-09-16 06:46:00,60.1,56.5,30.09,SSE,157,0.0,-999.0,88,-99.99,,,0.00,Acu-Link.com,2013-09-16 10:46:00,
2013-09-16 07:02:00,59.7,56.8,30.10,NNE,22,0.0,-999.0,90,-99.99,,,0.00,Acu-Link.com,2013-09-16 11:02:00,
2013-09-16 07:17:00,59.7,56.8,30.11,North,0,0.0,-999.0,90,-99.99,,,0.00,Acu-Link.com,2013-09-16 11:17:00,
2013-09-16 07:32:00,59.7,57.1,30.12,South,180,0.0,-999.0,91,-99.99,,,0.00,Acu-Link.com,2013-09-16 11:32:00,
2013-09-16 07:47:00,59.7,57.1,30.12,NNE,22,0.0,-999.0,91,-99.99,,,0.00,Acu-Link.com,2013-09-16 11:47:00,
2013-09-16 08:03:00,59.7,57.1,30.12,North,0,0.0,-999.0,91,-99.99,,,0.00,Acu-Link.com,2013-09-16 12:03:00,
2013-09-16 08:18:00,59.9,57.3,30.13,NNW,337,1.1,-999.0,91,-99.99,,,0.00,Acu-Link.com,2013-09-16 12:18:00,
2013-09-16 08:33:00,60.3,57.4,30.13,SW,225,1.7,-999.0,90,-99.99,,,0.00,Acu-Link.com,2013-09-16 12:33:00,
2013-09-16 08:48:00,60.6,57.3,30.14,East,90,1.1,-999.0,89,-99.99,,,0.00,Acu-Link.com,2013-09-16 12:48:00,
2013-09-16 09:04:00,61.2,57.6,30.15,WSW,247,0.0,-999.0,88,-99.99,,,0.00,Acu-Link.com,2013-09-16 13:04:00,
2013-09-16 09:19:00,61.9,57.7,30.15,NNW,337,1.1,-999.0,86,-99.99,,,0.00,Acu-Link.com,2013-09-16 13:19:00,
2013-09-16 09:34:00,62.2,57.6,30.15,SSE,157,0.0,-999.0,85,-99.99,,,0.00,Acu-Link.com,2013-09-16 13:34:00,
2013-09-16 09:50:00,62.8,57.6,30.17,WNW,292,1.7,-999.0,83,-99.99,,,0.00,Acu-Link.com,2013-09-16 13:50:00,
2013-09-16 10:05:00,63.5,57.6,30.17,SSE,157,0.0,-999.0,81,-99.99,,,0.00,Acu-Link.com,2013-09-16 14:05:00,
2013-09-16 10:20:00,64.8,58.1,30.17,West,270,0.0,-999.0,79,-99.99,,,0.00,Acu-Link.com,2013-09-16 14:20:00,
2013-09-16 10:36:00,65.1,57.3,30.18,SW,225,1.7,-999.0,76,-99.99,,,0.00,Acu-Link.com,2013-09-16 14:36:00,
2013-09-16 10:51:00,64.2,57.2,30.18,SSW,202,1.1,-999.0,78,-99.99,,,0.00,Acu-Link.com,2013-09-16 14:51:00,
2013-09-16 11:07:00,65.5,57.7,30.18,SSW,202,1.7,-999.0,76,-99.99,,,0.00,Acu-Link.com,2013-09-16 15:07:00,
2013-09-16 11:23:00,65.3,57.5,30.18,NW,315,1.7,-999.0,76,-99.99,,,0.00,Acu-Link.com,2013-09-16 15:23:00,
2013-09-16 11:39:00,66.6,57.7,30.19,South,180,2.2,-999.0,73,-99.99,,,0.00,Acu-Link.com,2013-09-16 15:39:00,
2013-09-16 11:54:00,67.8,58.0,30.19,WSW,247,0.0,-999.0,71,-99.99,,,0.00,Acu-Link.com,2013-09-16 15:54:00,
2013-09-16 12:10:00,66.7,57.4,30.19,South,180,0.0,-999.0,72,-99.99,,,0.00,Acu-Link.com,2013-09-16 16:10:00,
2013-09-16 12:27:00,67.6,58.6,30.20,SE,135,1.1,-999.0,73,-99.99,,,0.00,Acu-Link.com,2013-09-16 16:27:00,
2013-09-16 12:42:00,67.3,58.0,30.19,NW,315,0.0,-999.0,72,-99.99,,,0.00,Acu-Link.com,2013-09-16 16:42:00,
2013-09-16 12:57:00,67.6,58.6,30.20,WSW,247,1.1,-999.0,73,-99.99,,,0.00,Acu-Link.com,2013-09-16 16:57:00,
2013-09-16 13:13:00,68.5,57.9,30.19,South,180,0.0,-999.0,69,-99.99,,,0.00,Acu-Link.com,2013-09-16 17:13:00,
2013-09-16 13:28:00,66.7,57.4,30.19,SSW,202,0.0,-999.0,72,-99.99,,,0.00,Acu-Link.com,2013-09-16 17:28:00,
2013-09-16 13:44:00,67.8,57.3,30.20,WSW,247,0.0,-999.0,69,-99.99,,,0.00,Acu-Link.com,2013-09-16 17:44:00,
2013-09-16 13:59:00,69.3,58.3,30.19,WSW,247,2.2,-999.0,68,-99.99,,,0.00,Acu-Link.com,2013-09-16 17:59:00,
2013-09-16 14:15:00,72.3,58.5,30.19,WNW,292,2.7,-999.0,62,-99.99,,,0.00,Acu-Link.com,2013-09-16 18:15:00,
2013-09-16 14:30:00,70.5,57.7,30.19,SSW,202,1.7,-999.0,64,-99.99,,,0.00,Acu-Link.com,2013-09-16 18:30:00,
2013-09-16 14:46:00,69.6,57.7,30.19,SSE,157,1.1,-999.0,66,-99.99,,,0.00,Acu-Link.com,2013-09-16 18:46:00,
2013-09-16 15:01:00,70.0,57.7,30.18,NE,45,1.1,-999.0,65,-99.99,,,0.00,Acu-Link.com,2013-09-16 19:01:00,
2013-09-16 15:20:00,69.6,57.3,30.18,SSW,202,1.7,-999.0,65,-99.99,,,0.00,Acu-Link.com,2013-09-16 19:20:00,
2013-09-16 15:35:00,70.5,58.2,30.17,NNE,22,0.0,-999.0,65,-99.99,,,0.00,Acu-Link.com,2013-09-16 19:35:00,
2013-09-16 15:51:00,70.9,56.8,30.17,NNW,337,1.1,-999.0,61,-99.99,,,0.00,Acu-Link.com,2013-09-16 19:51:00,
2013-09-16 16:06:00,70.9,57.7,30.17,SSW,202,0.0,-999.0,63,-99.99,,,0.00,Acu-Link.com,2013-09-16 20:06:00,
2013-09-16 16:21:00,70.2,57.0,30.16,NNE,22,2.2,-999.0,63,-99.99,,,0.00,Acu-Link.com,2013-09-16 20:21:00,
2013-09-16 16:36:00,71.4,57.2,30.17,East,90,0.0,-999.0,61,-99.99,,,0.00,Acu-Link.com,2013-09-16 20:36:00,
2013-09-16 16:51:00,69.6,56.9,30.16,ENE,67,1.7,-999.0,64,-99.99,,,0.00,Acu-Link.com,2013-09-16 20:51:00,
2013-09-16 17:07:00,69.6,56.9,30.16,West,270,2.2,-999.0,64,-99.99,,,0.00,Acu-Link.com,2013-09-16 21:07:00,
2013-09-16 17:22:00,70.0,56.4,30.16,ESE,112,2.7,-999.0,62,-99.99,,,0.00,Acu-Link.com,2013-09-16 21:22:00,
2013-09-16 17:37:00,71.4,56.8,30.16,WSW,247,1.7,-999.0,60,-99.99,,,0.00,Acu-Link.com,2013-09-16 21:37:00,
2013-09-16 17:52:00,70.9,56.3,30.17,NE,45,1.7,-999.0,60,-99.99,,,0.00,Acu-Link.com,2013-09-16 21:52:00,
2013-09-16 18:08:00,69.8,56.2,30.17,NNE,22,2.7,-999.0,62,-99.99,,,0.00,Acu-Link.com,2013-09-16 22:08:00,
2013-09-16 18:23:00,68.7,55.6,30.16,WSW,247,1.7,-999.0,63,-99.99,,,0.00,Acu-Link.com,2013-09-16 22:23:00,
2013-09-16 18:38:00,67.3,55.1,30.17,ESE,112,1.7,-999.0,65,-99.99,,,0.00,Acu-Link.com,2013-09-16 22:38:00,
2013-09-16 18:54:00,66.2,54.9,30.18,North,0,1.7,-999.0,67,-99.99,,,0.00,Acu-Link.com,2013-09-16 22:54:00,
2013-09-16 19:09:00,65.3,54.5,30.17,NNE,22,1.1,-999.0,68,-99.99,,,0.00,Acu-Link.com,2013-09-16 23:09:00,
2013-09-16 19:24:00,64.4,54.4,30.17,WSW,247,1.7,-999.0,70,-99.99,,,0.00,Acu-Link.com,2013-09-16 23:24:00,
2013-09-16 19:39:00,63.3,54.1,30.18,East,90,1.7,-999.0,72,-99.99,,,0.00,Acu-Link.com,2013-09-16 23:39:00,
2013-09-16 19:54:00,62.2,53.4,30.18,NNW,337,1.1,-999.0,73,-99.99,,,0.00,Acu-Link.com,2013-09-16 23:54:00,
2013-09-16 20:10:00,61.3,53.7,30.19,WNW,292,0.0,-999.0,76,-99.99,,,0.00,Acu-Link.com,2013-09-17 00:10:00,
2013-09-16 20:25:00,60.6,53.7,30.19,North,0,1.1,-999.0,78,-99.99,,,0.00,Acu-Link.com,2013-09-17 00:25:00,
2013-09-16 20:40:00,59.7,53.2,30.20,WSW,247,0.0,-999.0,79,-99.99,,,0.00,Acu-Link.com,2013-09-17 00:40:00,
2013-09-16 20:56:00,58.8,53.0,30.20,NE,45,0.0,-999.0,81,-99.99,,,0.00,Acu-Link.com,2013-09-17 00:56:00,
2013-09-16 21:11:00,57.9,52.4,30.20,NNW,337,0.0,-999.0,82,-99.99,,,0.00,Acu-Link.com,2013-09-17 01:11:00,
2013-09-16 21:26:00,57.6,52.8,30.21,SE,135,0.0,-999.0,84,-99.99,,,0.00,Acu-Link.com,2013-09-17 01:26:00,
2013-09-16 21:41:00,57.0,52.5,30.20,South,180,0.0,-999.0,85,-99.99,,,0.00,Acu-Link.com,2013-09-17 01:41:00,
2013-09-16 21:56:00,56.7,52.2,30.20,NE,45,0.0,-999.0,85,-99.99,,,0.00,Acu-Link.com,2013-09-17 01:56:00,
2013-09-16 22:12:00,56.1,52.0,30.21,NNE,22,0.0,-999.0,86,-99.99,,,0.00,Acu-Link.com,2013-09-17 02:12:00,
2013-09-16 22:27:00,55.4,51.9,30.21,East,90,0.0,-999.0,88,-99.99,,,0.00,Acu-Link.com,2013-09-17 02:27:00,
2013-09-16 22:42:00,55.2,51.7,30.20,North,0,0.0,-999.0,88,-99.99,,,0.00,Acu-Link.com,2013-09-17 02:42:00,
2013-09-16 22:57:00,54.9,51.4,30.20,ENE,67,0.0,-999.0,88,-99.99,,,0.00,Acu-Link.com,2013-09-17 02:57:00,
2013-09-16 23:13:00,54.7,51.5,30.21,North,0,0.0,-999.0,89,-99.99,,,0.00,Acu-Link.com,2013-09-17 03:13:00,
2013-09-16 23:28:00,54.0,50.8,30.21,NE,45,0.0,-999.0,89,-99.99,,,0.00,Acu-Link.com,2013-09-17 03:28:00,
2013-09-16 23:55:00,53.6,50.7,30.22,NE,45,0.0,-999.0,90,-99.99,,,0.00,Acu-Link.com,2013-09-17 03:55:00,